Time;durP1;ratioP1;P1;durP2;ratioP2;P2;SDS_P1;SDS_P2;PMS_P1;PMS_P2;Temp;Humidity;BMP_temperature;BMP_pressure;BME280_temperature;BME280_humidity;BME280_pressure;Samples;Min_cycle;Max_cycle;Signal;HPM_P1;HPM_P2
2021/04/06 00:00:42;;;;;;;1999.90;999.90;;;3.50;92.60;;;;;;5068017;28;20123;-71
2021/04/06 00:03:16;;;;;;;1999.90;999.90;;;3.40;93.40;;;;;;5064542;28;20040;-71
2021/04/06 00:05:47;;;;;;;1999.90;999.90;;;3.40;93.40;;;;;;5058464;28;20530;-71
2021/04/06 00:08:14;;;;;;;1999.90;999.90;;;3.40;93.60;;;;;;5069117;28;20547;-71
2021/04/06 00:10:51;;;;;;;1999.90;999.90;;;3.40;93.40;;;;;;5060517;28;20055;-71
2021/04/06 00:13:19;;;;;;;1999.90;999.90;;;3.40;94.10;;;;;;5064715;28;20040;-71
2021/04/06 00:15:46;;;;;;;1999.90;999.90;;;3.40;93.50;;;;;;5061531;28;20049;-70
2021/04/06 00:18:16;;;;;;;1999.90;999.90;;;3.40;93.40;;;;;;5065204;28;20135;-71
2021/04/06 00:20:45;;;;;;;1999.90;999.90;;;3.30;93.80;;;;;;5061034;28;20059;-71
2021/04/06 00:23:13;;;;;;;1999.90;999.90;;;3.20;94.00;;;;;;5063787;28;20063;-71
2021/04/06 00:25:43;;;;;;;1999.90;999.90;;;3.20;94.60;;;;;;5068239;28;20136;-71
2021/04/06 00:28:17;;;;;;;1999.90;999.90;;;3.10;93.90;;;;;;5068615;28;20123;-71
2021/04/06 00:30:49;;;;;;;1999.90;999.90;;;3.10;94.00;;;;;;5058427;28;20054;-71
2021/04/06 00:33:21;;;;;;;1999.90;999.90;;;3.00;93.30;;;;;;5053172;28;20044;-71
2021/04/06 00:35:56;;;;;;;1999.90;999.90;;;3.00;93.20;;;;;;5062105;28;20045;-71
2021/04/06 00:38:25;;;;;;;1999.90;999.90;;;3.00;92.70;;;;;;5067384;28;20494;-71
2021/04/06 00:40:56;;;;;;;1999.90;999.90;;;2.90;92.10;;;;;;5062787;28;20052;-71
2021/04/06 00:43:35;;;;;;;1999.90;999.90;;;2.90;91.70;;;;;;5059126;28;20143;-70
2021/04/06 00:46:04;;;;;;;1999.90;999.90;;;2.90;91.70;;;;;;5063764;28;20036;-71
2021/04/06 00:48:31;;;;;;;1999.90;999.90;;;2.90;92.00;;;;;;5062806;28;20127;-71
2021/04/06 00:51:13;;;;;;;1999.90;999.90;;;2.90;91.60;;;;;;5068094;28;20472;-71
2021/04/06 00:53:51;;;;;;;1999.90;999.90;;;2.90;91.40;;;;;;5061511;28;20132;-71
2021/04/06 00:56:18;;;;;;;1999.90;999.90;;;2.90;91.90;;;;;;5066277;28;20048;-71
2021/04/06 00:58:50;;;;;;;1999.90;999.90;;;2.90;91.30;;;;;;5064206;28;20407;-70
2021/04/06 01:01:27;;;;;;;1999.90;999.90;;;3.00;91.10;;;;;;5063691;28;20049;-71
2021/04/06 01:03:57;;;;;;;1999.90;999.90;;;3.00;91.30;;;;;;5065097;28;20050;-71
2021/04/06 01:06:24;;;;;;;1999.90;999.90;;;3.00;91.60;;;;;;5063039;28;20044;-71
2021/04/06 01:08:52;;;;;;;1999.90;999.90;;;3.10;91.60;;;;;;5062137;28;20128;-71
2021/04/06 01:11:21;;;;;;;1999.90;999.90;;;3.20;91.70;;;;;;5057755;28;20041;-71
2021/04/06 01:13:48;;;;;;;1999.90;999.90;;;3.20;91.40;;;;;;5053886;28;20534;-71
2021/04/06 01:16:15;;;;;;;1999.90;999.90;;;3.20;91.70;;;;;;5061680;28;20131;-71
2021/04/06 01:18:43;;;;;;;1999.90;999.90;;;3.30;93.00;;;;;;5058203;28;20127;-71
2021/04/06 01:21:12;;;;;;;1999.90;999.90;;;3.30;92.70;;;;;;5061428;28;20050;-70
2021/04/06 01:23:39;;;;;;;1999.90;999.90;;;3.20;92.40;;;;;;5059475;28;20096;-71
2021/04/06 01:26:12;;;;;;;1999.90;999.90;;;3.20;91.30;;;;;;5063785;28;20048;-70
2021/04/06 01:28:39;;;;;;;1999.90;999.90;;;3.10;90.90;;;;;;5065248;28;20131;-71
2021/04/06 01:31:08;;;;;;;1999.90;999.90;;;3.10;91.80;;;;;;5062725;28;20451;-71
2021/04/06 01:33:35;;;;;;;1999.90;999.90;;;3.10;91.80;;;;;;5065908;28;20128;-71
2021/04/06 01:36:07;;;;;;;1999.90;999.90;;;3.10;92.20;;;;;;5064550;28;20045;-71
2021/04/06 01:38:38;;;;;;;1999.90;999.90;;;3.10;91.60;;;;;;5061958;28;20094;-71
2021/04/06 01:41:05;;;;;;;1999.90;999.90;;;3.10;91.80;;;;;;5066073;28;20044;-70
2021/04/06 01:43:32;;;;;;;1999.90;999.90;;;3.00;91.70;;;;;;5065492;28;20049;-71
2021/04/06 01:46:31;;;;;;;1999.90;999.90;;;3.00;92.40;;;;;;5064310;28;20443;-71
2021/04/06 01:48:56;;;;;;;1999.90;999.90;;;3.10;92.20;;;;;;5065758;28;20057;-70
2021/04/06 01:51:23;;;;;;;1999.90;999.90;;;3.00;92.10;;;;;;5062151;28;20048;-70
2021/04/06 01:53:49;;;;;;;1999.90;999.90;;;3.00;91.90;;;;;;5065481;28;20464;-71
2021/04/06 01:56:24;;;;;;;1999.90;999.90;;;3.10;92.90;;;;;;5061506;28;20047;-71
2021/04/06 01:58:54;;;;;;;1999.90;999.90;;;3.00;91.40;;;;;;5064560;28;20415;-71
2021/04/06 02:01:24;;;;;;;1999.90;999.90;;;3.00;91.20;;;;;;5066888;28;20041;-71
2021/04/06 02:04:05;;;;;;;1999.90;999.90;;;3.00;91.00;;;;;;5064243;28;20083;-70
2021/04/06 02:06:38;;;;;;;1999.90;999.90;;;3.00;91.40;;;;;;5067732;28;20435;-71
2021/04/06 02:09:08;;;;;;;1999.90;999.90;;;2.90;90.80;;;;;;5067448;28;20045;-71
2021/04/06 02:11:37;;;;;;;1999.90;999.90;;;2.90;90.90;;;;;;5063227;28;20726;-71
2021/04/06 02:14:11;;;;;;;1999.90;999.90;;;2.90;90.70;;;;;;5069205;28;20041;-71
2021/04/06 02:16:53;;;;;;;1999.90;999.90;;;2.80;90.80;;;;;;5067993;28;20041;-71
2021/04/06 02:19:32;;;;;;;1999.90;999.90;;;2.80;90.90;;;;;;5092318;28;20127;-71
2021/04/06 02:22:08;;;;;;;1999.90;999.90;;;2.80;90.70;;;;;;5063487;28;20135;-71
2021/04/06 02:24:40;;;;;;;1999.90;999.90;;;2.80;90.30;;;;;;5058340;28;20049;-71
2021/04/06 02:27:07;;;;;;;1999.90;999.90;;;2.70;90.10;;;;;;5067380;28;20908;-71
2021/04/06 02:30:01;;;;;;;1999.90;999.90;;;2.80;90.00;;;;;;5065712;28;20452;-71
2021/04/06 02:32:30;;;;;;;1999.90;999.90;;;2.70;90.10;;;;;;5062345;28;20072;-71
2021/04/06 02:34:58;;;;;;;1999.90;999.90;;;2.70;89.70;;;;;;5070712;28;20383;-71
2021/04/06 02:37:36;;;;;;;1999.90;999.90;;;2.70;89.50;;;;;;5069023;28;20154;-71
2021/04/06 02:40:08;;;;;;;1999.90;999.90;;;2.70;89.50;;;;;;5069265;28;20177;-71
2021/04/06 02:42:42;;;;;;;1999.90;999.90;;;2.60;88.80;;;;;;5059537;28;20053;-71
2021/04/06 02:45:22;;;;;;;1999.90;999.90;;;2.60;88.60;;;;;;5066214;28;20044;-71
2021/04/06 02:47:52;;;;;;;1999.90;999.90;;;2.60;89.20;;;;;;5065884;28;20051;-71
2021/04/06 02:50:24;;;;;;;1999.90;999.90;;;2.60;90.30;;;;;;5066041;28;20048;-71
2021/04/06 02:52:51;;;;;;;1999.90;999.90;;;2.60;90.60;;;;;;5065621;28;20238;-71
2021/04/06 02:55:18;;;;;;;1999.90;999.90;;;2.60;90.60;;;;;;5065652;28;20047;-71
2021/04/06 02:57:47;;;;;;;1999.90;999.90;;;2.60;90.60;;;;;;5066158;28;20078;-71
2021/04/06 03:00:28;;;;;;;1999.90;999.90;;;2.50;90.90;;;;;;5068509;28;20040;-70
2021/04/06 03:03:02;;;;;;;1999.90;999.90;;;2.50;90.60;;;;;;5067253;28;20046;-70
2021/04/06 03:05:34;;;;;;;1999.90;999.90;;;2.40;91.80;;;;;;5078641;28;20543;-70
2021/04/06 03:08:00;;;;;;;1999.90;999.90;;;2.40;91.60;;;;;;5069138;28;20055;-70
2021/04/06 03:10:28;;;;;;;1999.90;999.90;;;2.40;92.70;;;;;;5064302;28;20437;-70
2021/04/06 03:12:55;;;;;;;1999.90;999.90;;;2.40;91.50;;;;;;5060335;28;20137;-71
2021/04/06 03:15:26;;;;;;;1999.90;999.90;;;2.30;91.60;;;;;;5056064;28;20442;-70
2021/04/06 03:17:54;;;;;;;1999.90;999.90;;;2.30;91.60;;;;;;5059209;28;20463;-71
2021/04/06 03:20:26;;;;;;;1999.90;999.90;;;2.20;91.40;;;;;;5058976;28;20074;-71
2021/04/06 03:22:54;;;;;;;1999.90;999.90;;;2.20;90.90;;;;;;5058010;28;20055;-70
2021/04/06 03:25:22;;;;;;;1999.90;999.90;;;2.20;90.70;;;;;;5060892;28;20507;-70
2021/04/06 03:27:50;;;;;;;1999.90;999.90;;;2.10;90.70;;;;;;5058764;28;20052;-70
2021/04/06 03:30:34;;;;;;;1999.90;999.90;;;2.10;90.90;;;;;;5059106;28;20419;-71
2021/04/06 03:33:05;;;;;;;1999.90;999.90;;;2.00;90.50;;;;;;5058051;28;20050;-70
2021/04/06 03:35:33;;;;;;;1999.90;999.90;;;2.00;90.60;;;;;;5057352;28;20048;-70
2021/04/06 03:38:00;;;;;;;1999.90;999.90;;;1.90;90.70;;;;;;5058563;28;20131;-71
2021/04/06 03:40:31;;;;;;;1999.90;999.90;;;1.90;90.90;;;;;;5058644;28;20048;-71
2021/04/06 03:43:14;;;;;;;1999.90;999.90;;;1.90;90.90;;;;;;5054725;28;20141;-71
2021/04/06 03:46:03;;;;;;;1999.90;999.90;;;1.80;91.30;;;;;;5057605;28;20125;-70
2021/04/06 03:48:31;;;;;;;1999.90;999.90;;;1.80;90.90;;;;;;5058987;28;20503;-71
2021/04/06 03:50:58;;;;;;;1999.90;999.90;;;1.70;91.00;;;;;;5059642;28;20101;-71
2021/04/06 03:53:36;;;;;;;1999.90;999.90;;;1.70;90.60;;;;;;5057106;28;20561;-71
2021/04/06 03:56:12;;;;;;;1999.90;999.90;;;1.70;90.40;;;;;;5059004;28;20173;-70
2021/04/06 03:58:59;;;;;;;1999.90;999.90;;;1.70;90.90;;;;;;5056714;28;20052;-71
2021/04/06 04:01:26;;;;;;;1999.90;999.90;;;1.70;91.60;;;;;;5059461;28;20058;-71
2021/04/06 04:03:54;;;;;;;1999.90;999.90;;;1.70;91.80;;;;;;5057572;28;20489;-70
2021/04/06 04:06:29;;;;;;;1999.90;999.90;;;1.70;93.10;;;;;;5058454;28;20064;-71
2021/04/06 04:08:56;;;;;;;1999.90;999.90;;;1.70;94.50;;;;;;5058303;28;20053;-70
2021/04/06 04:11:23;;;;;;;1999.90;999.90;;;1.80;93.80;;;;;;5081337;28;20445;-70
2021/04/06 04:13:49;;;;;;;1999.90;999.90;;;1.90;93.00;;;;;;5055512;28;20041;-70
2021/04/06 04:16:16;;;;;;;1999.90;999.90;;;1.90;93.20;;;;;;5057051;28;20064;-70
2021/04/06 04:18:42;;;;;;;1999.90;999.90;;;1.90;92.70;;;;;;5054066;28;20048;-70
2021/04/06 04:21:12;;;;;;;1999.90;999.90;;;1.90;92.50;;;;;;5054768;28;20497;-70
2021/04/06 04:23:39;;;;;;;1999.90;999.90;;;1.90;92.30;;;;;;5054671;28;20045;-70
2021/04/06 04:26:06;;;;;;;1999.90;999.90;;;1.90;92.40;;;;;;5057162;28;20060;-71
2021/04/06 04:28:32;;;;;;;1999.90;999.90;;;1.90;92.20;;;;;;5049675;28;20473;-70
2021/04/06 04:31:05;;;;;;;1999.90;999.90;;;1.90;92.00;;;;;;5050110;28;20036;-70
2021/04/06 04:33:31;;;;;;;1999.90;999.90;;;1.80;92.70;;;;;;5051910;28;20516;-70
2021/04/06 04:35:57;;;;;;;1999.90;999.90;;;1.90;92.50;;;;;;5057517;28;20041;-71
2021/04/06 04:38:23;;;;;;;1999.90;999.90;;;1.90;92.20;;;;;;5056042;28;20048;-71
2021/04/06 04:40:49;;;;;;;1999.90;999.90;;;1.90;92.00;;;;;;5059725;28;20044;-70
2021/04/06 04:43:16;;;;;;;1999.90;999.90;;;2.00;93.40;;;;;;5067174;28;20063;-70
2021/04/06 04:45:42;;;;;;;1999.90;999.90;;;2.00;93.30;;;;;;5060672;28;20088;-70
2021/04/06 04:48:08;;;;;;;1999.90;999.90;;;2.10;94.30;;;;;;5061992;28;20044;-70
2021/04/06 04:50:34;;;;;;;1999.90;999.90;;;2.10;93.50;;;;;;5062320;28;20404;-71
2021/04/06 04:53:01;;;;;;;1999.90;999.90;;;2.10;93.40;;;;;;5065122;28;20053;-70
2021/04/06 04:55:28;;;;;;;1999.90;999.90;;;2.10;92.70;;;;;;5063644;28;20060;-70
2021/04/06 04:57:54;;;;;;;1999.90;999.90;;;2.00;92.40;;;;;;5077014;28;20042;-70
2021/04/06 05:00:22;;;;;;;1999.90;999.90;;;2.10;91.90;;;;;;5058070;28;20404;-71
2021/04/06 05:02:49;;;;;;;1999.90;999.90;;;2.00;92.00;;;;;;5084028;28;20257;-70
2021/04/06 05:05:17;;;;;;;1999.90;999.90;;;2.00;91.90;;;;;;5061754;28;20135;-71
2021/04/06 05:07:44;;;;;;;1999.90;999.90;;;1.90;91.70;;;;;;5057936;28;20055;-70
2021/04/06 05:10:12;;;;;;;1999.90;999.90;;;1.90;91.50;;;;;;5064743;28;20049;-71
2021/04/06 05:12:39;;;;;;;1999.90;999.90;;;1.90;91.90;;;;;;5052947;28;20467;-70
2021/04/06 05:15:07;;;;;;;1999.90;999.90;;;1.90;91.80;;;;;;5060846;28;20296;-70
2021/04/06 05:17:34;;;;;;;1999.90;999.90;;;1.90;92.10;;;;;;5053860;28;20052;-71
2021/04/06 05:20:14;;;;;;;1999.90;999.90;;;1.90;93.70;;;;;;5065236;28;20057;-71
2021/04/06 05:22:40;;;;;;;1999.90;999.90;;;1.90;94.30;;;;;;5059129;28;20499;-71
2021/04/06 05:25:07;;;;;;;1999.90;999.90;;;2.00;93.60;;;;;;5059435;28;20076;-71
2021/04/06 05:27:33;;;;;;;1999.90;999.90;;;2.00;94.00;;;;;;5059898;28;20053;-70
2021/04/06 05:30:00;;;;;;;1999.90;999.90;;;2.10;93.80;;;;;;5056665;28;20044;-70
2021/04/06 05:32:26;;;;;;;1999.90;999.90;;;2.10;93.20;;;;;;5057947;28;20476;-71
2021/04/06 05:34:52;;;;;;;1999.90;999.90;;;2.10;92.80;;;;;;5057172;28;20178;-71
2021/04/06 05:37:19;;;;;;;1999.90;999.90;;;2.10;92.60;;;;;;5062808;28;20496;-70
2021/04/06 05:39:45;;;;;;;1999.90;999.90;;;2.10;92.60;;;;;;5064215;28;20402;-70
2021/04/06 05:42:12;;;;;;;1999.90;999.90;;;2.10;92.30;;;;;;5060785;28;20048;-71
2021/04/06 05:44:41;;;;;;;1999.90;999.90;;;2.10;92.50;;;;;;5061032;28;20052;-71
2021/04/06 05:47:18;;;;;;;1999.90;999.90;;;2.10;93.00;;;;;;5061688;28;20051;-70
2021/04/06 05:49:45;;;;;;;1999.90;999.90;;;2.20;93.40;;;;;;5077116;28;20052;-70
2021/04/06 05:52:12;;;;;;;1999.90;999.90;;;2.20;94.30;;;;;;5061923;28;20041;-71
2021/04/06 05:54:38;;;;;;;1999.90;999.90;;;2.10;94.80;;;;;;5063466;28;20052;-71
2021/04/06 05:57:05;;;;;;;1999.90;999.90;;;2.10;94.80;;;;;;5055592;28;20123;-70
2021/04/06 05:59:31;;;;;;;1999.90;999.90;;;2.00;94.60;;;;;;5050871;28;20080;-70
2021/04/06 06:01:58;;;;;;;1999.90;999.90;;;1.90;93.80;;;;;;5057817;28;20401;-70
2021/04/06 06:04:24;;;;;;;1999.90;999.90;;;1.80;93.50;;;;;;5059691;28;20076;-70
2021/04/06 06:06:52;;;;;;;1999.90;999.90;;;1.80;93.60;;;;;;5057533;28;20040;-70
2021/04/06 06:09:33;;;;;;;1999.90;999.90;;;1.70;93.60;;;;;;5061417;28;20075;-70
2021/04/06 06:12:04;;;;;;;1999.90;999.90;;;1.70;92.90;;;;;;5062180;28;20041;-70
2021/04/06 06:14:36;;;;;;;1999.90;999.90;;;1.70;93.20;;;;;;5059266;28;20045;-70
2021/04/06 06:17:16;;;;;;;1999.90;999.90;;;1.70;93.30;;;;;;5064702;28;20076;-70
2021/04/06 06:19:44;;;;;;;1999.90;999.90;;;1.70;93.30;;;;;;5066123;28;20202;-70
2021/04/06 06:22:13;;;;;;;1999.90;999.90;;;1.70;92.50;;;;;;5060621;28;20061;-70
2021/04/06 06:24:43;;;;;;;1999.90;999.90;;;1.80;92.70;;;;;;5066862;28;20051;-70
2021/04/06 06:27:48;;;;;;;1999.90;999.90;;;1.90;93.00;;;;;;5067222;28;20433;-70
2021/04/06 06:30:34;;;;;;;1999.90;999.90;;;2.10;94.00;;;;;;5055749;28;20041;-70
2021/04/06 06:33:18;;;;;;;1999.90;999.90;;;2.30;94.20;;;;;;5057432;28;20040;-70
2021/04/06 06:35:50;;;;;;;1999.90;999.90;;;2.30;94.70;;;;;;5057794;28;20080;-70
2021/04/06 06:38:21;;;;;;;1999.90;999.90;;;2.40;94.40;;;;;;5055009;28;20040;-69
2021/04/06 06:40:50;;;;;;;1999.90;999.90;;;2.30;94.00;;;;;;5054217;28;20048;-70
2021/04/06 06:43:18;;;;;;;1999.90;999.90;;;2.30;93.30;;;;;;5053866;28;20044;-70
2021/04/06 06:45:45;;;;;;;1999.90;999.90;;;2.20;92.70;;;;;;5057002;28;20044;-70
2021/04/06 06:48:28;;;;;;;1999.90;999.90;;;2.20;92.40;;;;;;5057907;28;20098;-70
2021/04/06 06:50:56;;;;;;;1999.90;999.90;;;2.20;92.40;;;;;;5059124;28;20166;-70
2021/04/06 06:53:36;;;;;;;1999.90;999.90;;;2.30;92.50;;;;;;5058240;28;20052;-70
2021/04/06 06:56:04;;;;;;;1999.90;999.90;;;2.50;93.00;;;;;;5058396;28;20458;-70
2021/04/06 06:58:33;;;;;;;1999.90;999.90;;;2.70;93.00;;;;;;5058081;28;20051;-70
2021/04/06 07:01:00;;;;;;;1999.90;999.90;;;2.80;92.80;;;;;;5061186;28;20045;-70
2021/04/06 07:03:27;;;;;;;1999.90;999.90;;;2.80;93.00;;;;;;5061468;28;20135;-70
2021/04/06 07:05:54;;;;;;;1999.90;999.90;;;2.90;93.00;;;;;;5061619;28;20048;-70
2021/04/06 07:08:34;;;;;;;1999.90;999.90;;;2.90;92.90;;;;;;5060628;28;20404;-69
2021/04/06 07:11:02;;;;;;;1999.90;999.90;;;2.90;92.80;;;;;;5059288;28;20049;-70
2021/04/06 07:13:33;;;;;;;1999.90;999.90;;;3.00;92.90;;;;;;5059358;28;20080;-69
2021/04/06 07:16:00;;;;;;;1999.90;999.90;;;3.00;92.90;;;;;;5059414;28;20105;-69
2021/04/06 07:18:27;;;;;;;1999.90;999.90;;;3.00;93.20;;;;;;5062281;28;20484;-70
2021/04/06 07:21:03;;;;;;;1999.90;999.90;;;3.10;93.00;;;;;;5056839;28;20059;-70
2021/04/06 07:23:35;;;;;;;1999.90;999.90;;;3.20;93.10;;;;;;5060485;28;20431;-70
2021/04/06 07:26:09;;;;;;;1999.90;999.90;;;3.20;93.00;;;;;;5087629;28;20099;-70
2021/04/06 07:28:37;;;;;;;1999.90;999.90;;;3.30;92.80;;;;;;5059836;28;20487;-70
2021/04/06 07:31:04;;;;;;;1999.90;999.90;;;3.30;92.80;;;;;;5060681;28;20037;-70
2021/04/06 07:33:32;;;;;;;1999.90;999.90;;;3.30;93.00;;;;;;5059799;28;20691;-70
2021/04/06 07:36:04;;;;;;;1999.90;999.90;;;3.40;93.70;;;;;;5058486;28;20255;-70
2021/04/06 07:38:37;;;;;;;1999.90;999.90;;;3.50;93.50;;;;;;5085523;28;20544;-70
2021/04/06 07:41:05;;;;;;;1999.90;999.90;;;3.70;93.60;;;;;;5058883;28;20110;-70
2021/04/06 07:43:32;;;;;;;1999.90;999.90;;;3.90;93.70;;;;;;5060587;28;20047;-70
2021/04/06 07:45:59;;;;;;;1999.90;999.90;;;4.00;93.70;;;;;;5060764;28;20048;-69
2021/04/06 07:48:48;;;;;;;1999.90;999.90;;;4.10;93.60;;;;;;5059224;28;20052;-70
2021/04/06 07:51:28;;;;;;;1999.90;999.90;;;4.30;94.00;;;;;;5056898;28;20096;-70
2021/04/06 07:53:54;;;;;;;1999.90;999.90;;;4.40;93.70;;;;;;5055016;28;20382;-70
2021/04/06 07:56:42;;;;;;;1999.90;999.90;;;4.50;94.10;;;;;;5056405;28;20463;-70
2021/04/06 07:59:09;;;;;;;1999.90;999.90;;;4.60;93.40;;;;;;5055188;28;20056;-70
2021/04/06 08:01:36;;;;;;;1999.90;999.90;;;4.50;93.10;;;;;;5082201;28;20570;-71
2021/04/06 08:04:04;;;;;;;1999.90;999.90;;;4.30;92.70;;;;;;5056223;28;20482;-70
2021/04/06 08:06:49;;;;;;;1999.90;999.90;;;4.20;92.60;;;;;;5055935;28;20473;-70
2021/04/06 08:09:43;;;;;;;1999.90;999.90;;;4.10;92.60;;;;;;5056368;28;20103;-70
2021/04/06 08:12:15;;;;;;;1999.90;999.90;;;4.20;92.80;;;;;;5055230;28;20045;-70
2021/04/06 08:14:43;;;;;;;1999.90;999.90;;;4.40;92.80;;;;;;5055570;28;20049;-70
2021/04/06 08:17:26;;;;;;;1999.90;999.90;;;4.60;93.00;;;;;;5055975;28;20043;-70
2021/04/06 08:20:00;;;;;;;1999.90;999.90;;;4.80;93.20;;;;;;5056473;28;20048;-70
2021/04/06 08:22:30;;;;;;;1999.90;999.90;;;4.80;92.70;;;;;;5055662;28;20056;-70
2021/04/06 08:25:15;;;;;;;1999.90;999.90;;;4.90;92.70;;;;;;5056337;28;20400;-70
2021/04/06 08:27:53;;;;;;;1999.90;999.90;;;4.80;92.60;;;;;;5053687;28;20134;-70
2021/04/06 08:30:21;;;;;;;1999.90;999.90;;;4.80;92.50;;;;;;5057183;28;20044;-70
2021/04/06 08:32:57;;;;;;;1999.90;999.90;;;4.90;92.30;;;;;;5054804;28;20044;-71
2021/04/06 08:35:45;;;;;;;1999.90;999.90;;;4.90;92.40;;;;;;5056671;28;20450;-72
2021/04/06 08:38:28;;;;;;;1999.90;999.90;;;5.00;92.40;;;;;;5057422;28;20090;-71
2021/04/06 08:41:06;;;;;;;1999.90;999.90;;;5.10;92.30;;;;;;5056357;28;20045;-70
2021/04/06 08:44:05;;;;;;;1999.90;999.90;;;5.20;92.30;;;;;;5055495;28;20056;-70
2021/04/06 08:46:42;;;;;;;1999.90;999.90;;;5.30;92.50;;;;;;5051300;28;20072;-71
2021/04/06 08:49:37;;;;;;;1999.90;999.90;;;5.40;92.50;;;;;;5058736;28;20045;-70
2021/04/06 08:52:10;;;;;;;1999.90;999.90;;;5.50;92.40;;;;;;5055108;28;20045;-71
2021/04/06 08:54:36;;;;;;;1999.90;999.90;;;5.80;92.20;;;;;;5061098;28;20048;-71
2021/04/06 08:57:05;;;;;;;1999.90;999.90;;;5.90;92.00;;;;;;5057578;28;20384;-71
2021/04/06 08:59:35;;;;;;;1999.90;999.90;;;5.90;91.80;;;;;;5056451;28;20071;-71
2021/04/06 09:02:14;;;;;;;1999.90;999.90;;;6.00;91.60;;;;;;5055660;28;20051;-70
2021/04/06 09:04:41;;;;;;;1999.90;999.90;;;6.10;91.50;;;;;;5059499;28;20057;-70
2021/04/06 09:07:25;;;;;;;1999.90;999.90;;;6.10;91.50;;;;;;5060234;28;20460;-70
2021/04/06 09:09:54;;;;;;;1999.90;999.90;;;6.00;90.70;;;;;;5059575;28;20040;-70
2021/04/06 09:12:20;;;;;;;1999.90;999.90;;;5.80;90.80;;;;;;5058531;28;20044;-71
2021/04/06 09:14:47;;;;;;;1999.90;999.90;;;5.60;90.70;;;;;;5057995;28;20299;-71
2021/04/06 09:17:14;;;;;;;1999.90;999.90;;;5.40;90.40;;;;;;5060524;28;20043;-71
2021/04/06 09:19:41;;;;;;;1999.90;999.90;;;5.20;90.40;;;;;;5060166;28;20052;-71
2021/04/06 09:22:13;;;;;;;1999.90;999.90;;;5.10;90.50;;;;;;5058015;28;20052;-71
2021/04/06 09:24:40;;;;;;;1999.90;999.90;;;5.00;90.70;;;;;;5056875;28;20412;-71
2021/04/06 09:27:07;;;;;;;1999.90;999.90;;;5.10;91.00;;;;;;5058159;28;20064;-71
2021/04/06 09:29:37;;;;;;;1999.90;999.90;;;5.20;91.30;;;;;;5057535;28;20044;-71
2021/04/06 09:32:12;;;;;;;1999.90;999.90;;;5.40;91.40;;;;;;5057505;28;20071;-71
2021/04/06 09:34:45;;;;;;;1999.90;999.90;;;5.80;91.70;;;;;;5058605;28;20048;-71
2021/04/06 09:37:22;;;;;;;1999.90;999.90;;;6.10;92.00;;;;;;5059286;28;20067;-71
2021/04/06 09:39:51;;;;;;;1999.90;999.90;;;6.50;92.00;;;;;;5056688;28;20044;-71
2021/04/06 09:42:18;;;;;;;1999.90;999.90;;;6.80;91.80;;;;;;5056015;28;20074;-71
2021/04/06 09:44:47;;;;;;;1999.90;999.90;;;7.00;91.40;;;;;;5060771;28;20588;-71
2021/04/06 09:47:16;;;;;;;1999.90;999.90;;;7.10;90.90;;;;;;5059163;28;20076;-70
2021/04/06 09:49:45;;;;;;;1999.90;999.90;;;7.00;90.20;;;;;;5059788;28;20348;-71
2021/04/06 09:52:12;;;;;;;1999.90;999.90;;;7.00;90.70;;;;;;5057215;28;20055;-71
2021/04/06 09:54:58;;;;;;;1999.90;999.90;;;7.00;90.20;;;;;;5059520;28;20127;-71
2021/04/06 09:57:31;;;;;;;1999.90;999.90;;;6.90;87.30;;;;;;5059754;28;20049;-71
2021/04/06 09:59:58;;;;;;;1999.90;999.90;;;6.80;88.80;;;;;;5060062;28;20047;-71
2021/04/06 10:02:27;;;;;;;1999.90;999.90;;;6.60;87.50;;;;;;5058481;28;20067;-70
2021/04/06 10:04:54;;;;;;;1999.90;999.90;;;6.30;85.40;;;;;;5058537;28;20053;-70
2021/04/06 10:07:27;;;;;;;1999.90;999.90;;;6.10;87.60;;;;;;5060208;28;20576;-71
2021/04/06 10:09:58;;;;;;;1999.90;999.90;;;5.80;89.20;;;;;;5058731;28;20068;-71
2021/04/06 10:12:27;;;;;;;1999.90;999.90;;;5.70;90.30;;;;;;5057749;28;20063;-70
2021/04/06 10:14:54;;;;;;;1999.90;999.90;;;5.60;90.80;;;;;;5058542;28;20097;-70
2021/04/06 10:17:22;;;;;;;1999.90;999.90;;;5.40;91.10;;;;;;5058890;28;20072;-72
2021/04/06 10:20:04;;;;;;;1999.90;999.90;;;5.10;91.00;;;;;;5063565;28;20175;-71
2021/04/06 10:22:50;;;;;;;1999.90;999.90;;;5.00;91.80;;;;;;5061612;28;20158;-70
2021/04/06 10:25:22;;;;;;;1999.90;999.90;;;5.10;92.60;;;;;;5063504;28;20048;-71
2021/04/06 10:27:53;;;;;;;1999.90;999.90;;;5.40;93.40;;;;;;5061874;28;20052;-71
2021/04/06 10:30:31;;;;;;;1999.90;999.90;;;5.90;94.50;;;;;;5063152;28;20061;-71
2021/04/06 10:33:18;;;;;;;1999.90;999.90;;;6.40;95.40;;;;;;5060392;28;20048;-70
2021/04/06 10:35:56;;;;;;;1999.90;999.90;;;7.00;96.80;;;;;;5062160;28;20372;-71
2021/04/06 10:38:35;;;;;;;1999.90;999.90;;;7.50;97.20;;;;;;5061731;28;20059;-70
2021/04/06 10:41:03;;;;;;;;;;;8.10;98.80;;;;;;5057359;28;20040;-70
2021/04/06 10:43:31;;;;;;;1999.90;999.90;;;8.30;95.50;;;;;;5057525;28;22249;-71
2021/04/06 10:46:13;;;;;;;1999.90;999.90;;;8.20;95.50;;;;;;5058787;28;20064;-71
2021/04/06 10:48:44;;;;;;;1999.90;999.90;;;7.70;92.20;;;;;;5058271;28;20369;-71
2021/04/06 10:51:13;;;;;;;1999.90;999.90;;;7.30;93.70;;;;;;5059020;28;20533;-71
2021/04/06 10:53:46;;;;;;;1999.90;999.90;;;6.90;92.80;;;;;;5056854;28;20067;-72
2021/04/06 10:56:13;;;;;;;1999.90;999.90;;;6.60;91.90;;;;;;5058246;28;20064;-71
2021/04/06 10:59:01;;;;;;;1999.90;999.90;;;6.60;92.80;;;;;;5057871;28;20579;-71
2021/04/06 11:01:45;;;;;;;1999.90;999.90;;;6.80;93.30;;;;;;5057338;28;20052;-71
2021/04/06 11:04:28;;;;;;;1999.90;999.90;;;7.10;93.90;;;;;;5059048;28;20059;-71
2021/04/06 11:06:58;;;;;;;1999.90;999.90;;;7.20;89.90;;;;;;5060277;28;20055;-70
2021/04/06 11:09:33;;;;;;;1999.90;999.90;;;7.10;91.30;;;;;;5059153;28;20045;-71
2021/04/06 11:12:00;;;;;;;1999.90;999.90;;;7.20;91.40;;;;;;5058797;28;20044;-71
2021/04/06 11:14:27;;;;;;;1999.90;999.90;;;7.60;92.30;;;;;;5058275;28;20049;-71
2021/04/06 11:16:54;;;;;;;1999.90;999.90;;;7.90;92.60;;;;;;5056976;28;20044;-71
2021/04/06 11:19:26;;;;;;;1999.90;999.90;;;8.30;94.50;;;;;;5059808;28;20036;-71
2021/04/06 11:22:03;;;;;;;1999.90;999.90;;;8.60;95.70;;;;;;5057319;28;20041;-71
2021/04/06 11:24:31;;;;;;;1999.90;999.90;;;8.50;90.70;;;;;;5060610;28;20045;-70
2021/04/06 11:26:59;;;;;;;1999.90;999.90;;;8.20;93.30;;;;;;5061394;28;20087;-70
2021/04/06 11:29:28;;;;;;;1999.90;999.90;;;7.80;94.10;;;;;;5061725;28;20044;-70
2021/04/06 11:31:59;;;;;;;1999.90;999.90;;;7.50;94.30;;;;;;5058822;28;20059;-71
2021/04/06 11:34:26;;;;;;;1999.90;999.90;;;7.40;94.20;;;;;;5060337;28;20051;-71
2021/04/06 11:36:52;;;;;;;1999.90;999.90;;;7.30;93.90;;;;;;5059005;28;20080;-71
2021/04/06 11:39:22;;;;;;;1999.90;999.90;;;7.00;92.70;;;;;;5057568;28;20041;-71
2021/04/06 11:41:48;;;;;;;1999.90;999.90;;;6.50;92.30;;;;;;5058876;28;20048;-70
2021/04/06 11:44:16;;;;;;;1999.90;999.90;;;6.00;92.20;;;;;;5061896;28;20072;-71
2021/04/06 11:46:43;;;;;;;1999.90;999.90;;;5.60;92.20;;;;;;5059936;28;20492;-70
2021/04/06 11:49:11;;;;;;;1999.90;999.90;;;5.30;92.60;;;;;;5061003;28;20047;-70
2021/04/06 11:51:39;;;;;;;1999.90;999.90;;;5.10;92.40;;;;;;5058356;28;20119;-71
2021/04/06 11:54:06;;;;;;;1999.90;999.90;;;4.90;92.20;;;;;;5060471;28;20492;-70
2021/04/06 11:56:33;;;;;;;1999.90;999.90;;;4.90;92.30;;;;;;5061690;28;20143;-70
2021/04/06 11:59:02;;;;;;;1999.90;999.90;;;4.90;91.90;;;;;;5061103;28;20153;-70
2021/04/06 12:01:30;;;;;;;1999.90;999.90;;;4.90;92.00;;;;;;5058926;28;20407;-71
2021/04/06 12:03:56;;;;;;;1999.90;999.90;;;5.20;92.50;;;;;;5088240;28;20060;-71
2021/04/06 12:06:24;;;;;;;1999.90;999.90;;;5.80;93.90;;;;;;5061403;28;20128;-70
2021/04/06 12:08:50;;;;;;;1999.90;999.90;;;6.40;94.10;;;;;;5061154;28;20049;-71
2021/04/06 12:11:16;;;;;;;1999.90;999.90;;;6.90;93.30;;;;;;5059842;28;20052;-71
2021/04/06 12:13:43;;;;;;;1999.90;999.90;;;7.30;93.70;;;;;;5060251;28;20805;-70
2021/04/06 12:16:10;;;;;;;1999.90;999.90;;;7.80;95.00;;;;;;5056326;28;20377;-71
2021/04/06 12:18:37;;;;;;;1999.90;999.90;;;8.20;94.10;;;;;;5056280;28;20045;-71
2021/04/06 12:21:07;;;;;;;1999.90;999.90;;;8.50;94.50;;;;;;5056005;28;20184;-72
2021/04/06 12:23:33;;;;;;;1999.90;999.90;;;8.90;96.20;;;;;;5056811;28;20249;-71
2021/04/06 12:25:59;;;;;;;1999.90;999.90;;;9.40;96.40;;;;;;5056610;28;20047;-71
2021/04/06 12:28:25;;;;;;;1999.90;999.90;;;9.60;96.90;;;;;;5056388;28;20805;-71